Pagrindinis puslapis
METAR-TAF:

METAR-TAF

Oro uostai :

Volisas, Prancūzija

platuma: 13-14S, ilguma: 176-10W, Aukštis: 23 m

Dabartinis oras

Ataskaita buvo paskelbta 7 minutes, ne 10:30 UTC
Vėjas 9 kt nuo kintamojo kryptimis
Temperatūra 26°C
Drėgmė 89%
Slėgis 1012 hPa
Matomumas 10 km arba daugiau

METAR: NLWW 221030Z AUTO VRB09KT 9999 BKN018/// BKN024/// BKN037/// 26/24 Q1012 NOSIG

Laikas: 22:37 (10:37 UTC)

Prognozė

Ataskaita buvo paskelbta 5 valandos ir 37 minutes, ne 05:00 UTC
Prognozė galioja nuo 22 metu 06 UTC su 23 metu 06 UTC
Vėjas 8 kt iš Pietryčių
Matomumas 10 km arba daugiau
Išsisklaidę debesys ne aukštis 2000 ft
Su prošvaistėmis ne aukštis 3500 ft
Tikimybė 30% :
Laikinai
nuo 22 metu 06 UTC su 22 metu 10 UTC
Matomumas: 4500 m
Su prošvaistėmis ne aukštis 1400 ft
lietus
Tikimybė 30% :
Laikinai
nuo 22 metu 22 UTC su 23 metu 06 UTC
Vėjas 15 kt iš Pietryčių su gūsio iki 25 kt

TAF: NLWW 220500Z 2206/2306 14008KT 9999 SCT020 BKN035 PROB30 TEMPO 2206/2210 4500 SHRA BKN014 PROB30 TEMPO 2222/2306 14015G25KT

Orai ataskaitas ir orų prognozės (METAR, TAF).

turimą stotys yra geltonos ir raudonos taškus žemėlapyje.

Perkelti pele per norėdami pamatyti stoties vardą.

Tada spustelėkite, norėdami matyti oro stebėjimo ir prognozės.

Norėdami pakeisti žemėlapį: spustelėkite ant žalios mygtukų su juodo kryžiaus žemyn,; žalią mygtuką su brūkšneliu, jei norite nutolinti; arba žalių rodyklių gretimoms žemėlapius.


METAR-TAF: